Time;durP1;ratioP1;P1;durP2;ratioP2;P2;SDS_P1;SDS_P2;PMS_P1;PMS_P2;Temp;Humidity;BMP_temperature;BMP_pressure;BME280_temperature;BME280_humidity;BME280_pressure;Samples;Min_cycle;Max_cycle;Signal;HPM_P1;HPM_P2
2023/04/08 00:00:59;;;;;;;28.13;19.90;;;;;;;8.40;96.75;102105.75;5117705;28;20035;-58
2023/04/08 00:03:24;;;;;;;29.05;20.33;;;;;;;8.52;96.33;102123.88;5118915;28;20030;-58
2023/04/08 00:05:50;;;;;;;29.45;20.80;;;;;;;8.49;96.85;102128.44;5119791;27;20038;-58
2023/04/08 00:08:15;;;;;;;32.17;21.02;;;;;;;8.46;96.80;102124.09;5116641;28;20035;-58
2023/04/08 00:10:40;;;;;;;35.05;21.65;;;;;;;8.52;96.78;102123.88;5118784;28;20030;-58
2023/04/08 00:13:06;;;;;;;30.38;21.85;;;;;;;8.50;96.57;102123.09;5118479;28;20410;-58
2023/04/08 00:15:31;;;;;;;30.00;21.98;;;;;;;8.44;96.87;102119.75;5117424;27;20500;-58
2023/04/08 00:17:57;;;;;;;35.58;22.52;;;;;;;8.39;97.22;102106.69;5118757;28;20031;-58
2023/04/08 00:20:23;;;;;;;32.60;21.13;;;;;;;8.43;97.07;102124.22;5118437;28;20027;-57
2023/04/08 00:22:48;;;;;;;32.15;21.90;;;;;;;8.44;97.49;102120.63;5118581;28;20076;-57
2023/04/08 00:25:14;;;;;;;33.50;22.77;;;;;;;8.38;97.53;102123.44;5119103;27;20027;-58
2023/04/08 00:27:39;;;;;;;35.17;24.75;;;;;;;8.29;97.51;102116.66;5119684;27;20470;-57
2023/04/08 00:30:07;;;;;;;28.80;22.38;;;;;;;8.32;97.74;102119.22;5100392;28;20038;-57
2023/04/08 00:32:32;;;;;;;38.35;22.48;;;;;;;8.40;97.74;102121.66;5118115;28;20398;-58
2023/04/08 00:34:58;;;;;;;34.53;23.88;;;;;;;8.43;97.68;102120.69;5100017;28;20031;-57
2023/04/08 00:37:26;;;;;;;34.10;24.00;;;;;;;8.47;97.49;102125.84;5118599;27;20050;-58
2023/04/08 00:39:53;;;;;;;36.75;25.02;;;;;;;8.37;97.69;102119.94;5100207;28;20028;-58
2023/04/08 00:42:18;;;;;;;37.88;25.80;;;;;;;8.39;98.27;102127.88;5118899;27;20038;-57
2023/04/08 00:44:46;;;;;;;36.92;26.38;;;;;;;8.35;98.38;102124.44;5118388;28;20052;-58
2023/04/08 00:47:17;;;;;;;34.15;26.90;;;;;;;8.42;97.75;102125.13;5119149;27;20035;-57
2023/04/08 00:49:45;;;;;;;39.90;28.73;;;;;;;8.32;98.49;102126.31;5118211;27;20024;-57
2023/04/08 00:52:11;;;;;;;38.80;29.33;;;;;;;8.39;97.97;102128.75;5118195;28;20024;-58
2023/04/08 00:54:37;;;;;;;43.47;27.52;;;;;;;8.44;98.12;102131.22;5114576;28;20038;-57
2023/04/08 00:57:04;;;;;;;37.42;28.23;;;;;;;8.31;98.36;102120.16;5134033;27;20474;-57
2023/04/08 00:59:30;;;;;;;45.03;30.75;;;;;;;8.43;98.93;102131.28;5134722;27;20518;-57
2023/04/08 01:02:05;;;;;;;37.90;28.70;;;;;;;8.40;98.53;102133.13;5135092;27;20088;-57
2023/04/08 01:05:02;;;;;;;39.78;29.77;;;;;;;8.46;98.82;102131.19;5117013;27;20067;-58
2023/04/08 01:07:31;;;;;;;47.63;31.15;;;;;;;8.48;98.86;102139.97;5133452;27;20038;-57
2023/04/08 01:10:02;;;;;;;47.58;31.05;;;;;;;8.41;98.85;102134.88;5113969;27;20027;-57
2023/04/08 01:12:30;;;;;;;47.15;32.90;;;;;;;8.38;99.17;102134.97;5114799;28;20020;-58
2023/04/08 01:15:02;;;;;;;50.45;33.90;;;;;;;8.35;99.87;102124.44;5117013;27;20545;-57
2023/04/08 01:17:33;;;;;;;44.63;31.83;;;;;;;8.39;99.35;102135.84;5134632;27;20031;-57
2023/04/08 01:20:01;;;;;;;53.25;34.55;;;;;;;8.33;99.90;102133.38;5115132;27;20027;-58
2023/04/08 01:23:10;;;;;;;49.58;35.75;;;;;;;8.43;100.00;102136.59;5135172;27;20087;-58
2023/04/08 01:25:37;;;;;;;53.97;35.83;;;;;;;8.27;100.00;102120.31;5114996;27;20470;-57
2023/04/08 01:28:06;;;;;;;56.13;35.80;;;;;;;8.28;100.00;102133.50;5116443;27;20125;-58
2023/04/08 01:30:38;;;;;;;55.85;37.30;;;;;;;8.23;100.00;102143.38;5134671;27;20743;-57
2023/04/08 01:33:05;;;;;;;53.53;37.35;;;;;;;8.26;100.00;102134.47;5133975;27;20027;-57
2023/04/08 01:35:33;;;;;;;51.53;35.22;;;;;;;8.21;100.00;102145.22;5115859;27;20076;-58
2023/04/08 01:38:00;;;;;;;55.60;37.65;;;;;;;8.24;100.00;102142.47;5134159;27;20023;-57
2023/04/08 01:40:26;;;;;;;50.10;36.63;;;;;;;8.29;100.00;102145.81;5134718;27;20022;-57
2023/04/08 01:42:55;;;;;;;49.28;36.97;;;;;;;8.27;100.00;102144.16;5116315;27;20023;-58
2023/04/08 01:45:21;;;;;;;54.03;37.08;;;;;;;8.36;100.00;102150.03;5117820;27;20506;-57
2023/04/08 01:47:49;;;;;;;55.90;36.85;;;;;;;8.37;100.00;102146.44;5098625;28;20027;-58
2023/04/08 01:50:15;;;;;;;54.65;37.42;;;;;;;8.33;100.00;102149.28;5094372;28;20031;-57
2023/04/08 01:52:43;;;;;;;50.05;36.00;;;;;;;8.37;100.00;102151.75;5113040;28;20023;-58
2023/04/08 01:55:09;;;;;;;44.72;33.80;;;;;;;8.29;100.00;102129.06;5093667;28;20027;-58
2023/04/08 01:57:37;;;;;;;42.40;32.10;;;;;;;8.25;100.00;102130.94;5113434;27;20023;-58
2023/04/08 02:00:09;;;;;;;42.58;32.55;;;;;;;8.26;100.00;102147.72;5115754;27;20117;-57
2023/04/08 02:02:36;;;;;;;44.00;33.20;;;;;;;8.16;100.00;102148.00;5115113;27;20066;-57
2023/04/08 02:05:02;;;;;;;41.55;33.33;;;;;;;8.22;100.00;102140.78;5133222;27;20452;-58
2023/04/08 02:07:27;;;;;;;43.70;31.80;;;;;;;8.25;100.00;102146.84;5114627;27;20027;-58
2023/04/08 02:09:54;;;;;;;41.53;32.42;;;;;;;8.24;100.00;102144.28;5131566;27;20067;-58
2023/04/08 02:12:20;;;;;;;44.38;32.92;;;;;;;8.31;100.00;102144.00;5113677;28;20027;-57
2023/04/08 02:14:46;;;;;;;43.47;31.45;;;;;;;8.28;100.00;102141.44;5092243;28;20019;-57
2023/04/08 02:17:22;;;;;;;43.83;32.88;;;;;;;8.16;100.00;102131.25;5130958;27;20023;-58
2023/04/08 02:19:57;;;;;;;47.10;34.65;;;;;;;8.19;100.00;102144.41;5133936;27;20619;-57
2023/04/08 02:22:35;;;;;;;42.85;33.90;;;;;;;8.22;100.00;102152.25;5133855;27;20023;-58
2023/04/08 02:25:03;;;;;;;37.33;32.78;;;;;;;8.24;100.00;102149.56;5114689;27;20019;-58
2023/04/08 02:27:31;;;;;;;42.05;32.35;;;;;;;8.12;100.00;102141.09;5113750;27;20037;-57
2023/04/08 02:30:01;;;;;;;42.88;34.70;;;;;;;8.27;100.00;102150.34;5115968;27;20043;-57
2023/04/08 02:32:29;;;;;;;47.28;35.72;;;;;;;8.18;100.00;102142.69;5133537;27;20019;-57
2023/04/08 02:34:56;;;;;;;43.70;35.05;;;;;;;8.23;100.00;102146.03;5122543;27;20037;-57
2023/04/08 02:37:22;;;;;;;38.78;34.22;;;;;;;8.19;100.00;102144.41;5115415;27;20023;-57
2023/04/08 02:39:47;;;;;;;50.70;36.55;;;;;;;8.23;100.00;102155.75;5095230;28;20027;-58
2023/04/08 02:42:15;;;;;;;47.83;34.38;;;;;;;8.20;100.00;102160.25;5127424;27;20015;-57
2023/04/08 02:44:41;;;;;;;41.17;33.63;;;;;;;8.22;100.00;102154.03;5109429;28;20040;-57
2023/04/08 02:47:08;;;;;;;42.78;32.47;;;;;;;8.24;100.00;102160.16;5112995;27;20031;-58
2023/04/08 02:49:34;;;;;;;46.95;35.03;;;;;;;8.23;100.00;102161.06;5111347;28;20020;-57
2023/04/08 02:51:59;;;;;;;40.10;34.35;;;;;;;8.24;100.00;102165.47;5107999;28;20030;-58
2023/04/08 02:54:25;;;;;;;42.85;35.40;;;;;;;8.23;100.00;102161.94;5098970;28;20019;-57
2023/04/08 02:56:53;;;;;;;40.47;34.25;;;;;;;8.27;100.00;102152.13;5117161;27;20103;-57
2023/04/08 02:59:21;;;;;;;38.90;34.30;;;;;;;8.26;100.00;102167.13;5111574;28;20020;-57
2023/04/08 03:01:47;;;;;;;44.28;34.22;;;;;;;8.25;100.00;102168.06;5110613;28;20038;-58
2023/04/08 03:04:15;;;;;;;42.13;33.67;;;;;;;8.18;100.00;102166.53;5102059;28;20020;-57
2023/04/08 03:06:40;;;;;;;42.97;35.17;;;;;;;8.28;100.00;102165.31;5111732;27;20033;-58
2023/04/08 03:09:06;;;;;;;43.53;35.85;;;;;;;8.22;100.00;102157.56;5086079;28;20028;-57
2023/04/08 03:11:31;;;;;;;41.30;35.28;;;;;;;8.26;100.00;102155.66;5089729;28;20030;-57
2023/04/08 03:13:57;;;;;;;43.72;36.30;;;;;;;8.20;100.00;102152.28;5111434;28;20065;-58
2023/04/08 03:16:22;;;;;;;45.45;36.63;;;;;;;8.32;100.00;102163.41;5110428;27;20090;-57
2023/04/08 03:18:51;;;;;;;45.83;34.28;;;;;;;8.32;100.00;102168.72;5110698;28;20055;-58
2023/04/08 03:21:17;;;;;;;46.08;37.50;;;;;;;8.34;100.00;102164.25;5112167;27;20478;-58
2023/04/08 03:23:43;;;;;;;44.22;36.63;;;;;;;8.34;100.00;102166.91;5108303;28;20054;-58
2023/04/08 03:26:08;;;;;;;46.90;38.03;;;;;;;8.30;100.00;102168.78;5093163;28;20576;-58
2023/04/08 03:28:33;;;;;;;47.95;36.72;;;;;;;8.30;100.00;102166.13;5111749;28;20019;-58
2023/04/08 03:31:03;;;;;;;47.72;38.67;;;;;;;8.27;100.00;102170.69;5110956;28;20016;-57
2023/04/08 03:33:29;;;;;;;44.33;36.10;;;;;;;8.25;100.00;102165.41;5112204;28;20137;-57
2023/04/08 03:35:54;;;;;;;46.42;37.00;;;;;;;8.24;100.00;102173.41;5100302;28;20032;-57
2023/04/08 03:38:20;;;;;;;48.13;38.67;;;;;;;8.21;100.00;102163.78;5111156;28;20103;-57
2023/04/08 03:40:45;;;;;;;47.45;38.85;;;;;;;8.24;100.00;102171.63;5110947;28;20077;-57
2023/04/08 03:43:11;;;;;;;50.70;39.67;;;;;;;8.20;100.00;102164.69;5111142;28;20149;-57
2023/04/08 03:45:37;;;;;;;52.13;40.05;;;;;;;8.24;100.00;102168.13;5078635;28;20070;-57
2023/04/08 03:48:02;;;;;;;52.92;40.10;;;;;;;8.24;100.00;102171.63;5104235;28;20031;-57
2023/04/08 03:50:28;;;;;;;49.75;39.92;;;;;;;8.22;100.00;102167.28;5110881;28;20011;-57
2023/04/08 03:52:53;;;;;;;51.20;41.22;;;;;;;8.19;100.00;102170.91;5112202;28;20034;-57
2023/04/08 03:55:19;;;;;;;50.67;42.03;;;;;;;8.14;100.00;102176.34;5110787;28;20031;-57
2023/04/08 03:57:44;;;;;;;60.53;42.55;;;;;;;8.11;100.00;102173.78;5093129;28;20046;-57
2023/04/08 04:00:13;;;;;;;49.88;41.85;;;;;;;8.10;100.00;102177.38;5108856;28;20383;-57
2023/04/08 04:02:39;;;;;;;56.60;42.40;;;;;;;8.10;100.00;102174.72;5092391;28;20116;-57
2023/04/08 04:05:04;;;;;;;62.95;43.03;;;;;;;8.10;100.00;102168.56;5110859;28;20102;-58
2023/04/08 04:07:30;;;;;;;57.95;42.83;;;;;;;8.06;100.00;102169.53;5111867;28;20032;-57
2023/04/08 04:09:56;;;;;;;56.72;43.70;;;;;;;8.13;100.00;102173.75;5086137;28;20156;-58
2023/04/08 04:12:22;;;;;;;65.40;45.97;;;;;;;8.09;100.00;102173.00;5075867;28;20098;-57
2023/04/08 04:14:47;;;;;;;64.90;46.58;;;;;;;7.98;100.00;102164.50;5098724;28;20027;-57
2023/04/08 04:17:12;;;;;;;65.88;45.35;;;;;;;8.04;100.00;102179.34;5109582;28;20020;-57
2023/04/08 04:19:38;;;;;;;65.97;46.45;;;;;;;8.11;100.00;102176.44;5121466;28;20394;-57
2023/04/08 04:22:03;;;;;;;66.15;47.15;;;;;;;7.99;100.00;102163.56;5131531;28;20061;-58
2023/04/08 04:24:29;;;;;;;69.18;46.88;;;;;;;8.13;100.00;102182.56;5095335;28;20030;-57
2023/04/08 04:26:54;;;;;;;75.45;48.58;;;;;;;8.16;100.00;102187.75;5092027;28;20192;-57
2023/04/08 04:29:20;;;;;;;74.05;47.58;;;;;;;8.17;100.00;102192.13;5114013;27;20024;-57
2023/04/08 04:31:45;;;;;;;70.20;48.63;;;;;;;8.20;100.00;102193.84;5113820;28;20468;-57
2023/04/08 04:34:10;;;;;;;72.60;49.53;;;;;;;8.19;100.00;102192.97;5114680;28;20103;-57
2023/04/08 04:36:36;;;;;;;86.60;53.65;;;;;;;8.08;100.00;102197.72;5112463;28;20034;-57
2023/04/08 04:39:03;;;;;;;89.68;54.08;;;;;;;8.09;100.00;102196.84;5118173;27;20024;-58
2023/04/08 04:41:29;;;;;;;85.38;53.70;;;;;;;8.11;100.00;102202.06;5099031;28;20446;-58
2023/04/08 04:43:54;;;;;;;91.70;52.08;;;;;;;8.00;100.00;102193.59;5113926;28;20050;-57
2023/04/08 04:46:20;;;;;;;82.35;55.03;;;;;;;8.09;100.00;102204.78;5113436;28;20024;-57
2023/04/08 04:48:45;;;;;;;94.43;55.90;;;;;;;8.14;100.00;102208.13;5114278;28;20035;-58
2023/04/08 04:51:11;;;;;;;91.18;55.38;;;;;;;8.13;100.00;102214.38;5103862;27;20019;-58
2023/04/08 04:53:36;;;;;;;97.40;56.85;;;;;;;8.07;100.00;102208.38;5135773;27;20080;-58
2023/04/08 04:56:01;;;;;;;101.35;56.47;;;;;;;8.12;100.00;102214.44;5134454;27;20279;-57
2023/04/08 04:58:27;;;;;;;106.15;59.20;;;;;;;8.03;100.00;102212.94;5100309;27;20027;-58
2023/04/08 05:00:55;;;;;;;94.43;54.30;;;;;;;8.04;100.00;102227.03;5115836;27;20080;-57
2023/04/08 05:03:23;;;;;;;101.75;59.28;;;;;;;8.05;100.00;102231.41;5111375;28;20106;-58
2023/04/08 05:05:55;;;;;;;96.13;56.72;;;;;;;8.08;100.00;102223.38;5079915;28;20549;-57
2023/04/08 05:08:20;;;;;;;97.88;55.28;;;;;;;8.13;100.00;102229.41;5115350;28;20027;-58
2023/04/08 05:10:48;;;;;;;102.85;56.75;;;;;;;8.15;100.00;102230.22;5096017;28;20501;-58
2023/04/08 05:13:16;;;;;;;92.88;53.85;;;;;;;8.07;100.00;102226.94;5116372;27;20027;-58
2023/04/08 05:15:44;;;;;;;93.65;55.70;;;;;;;8.08;100.00;102232.19;5096107;28;20110;-57
2023/04/08 05:18:10;;;;;;;98.35;56.78;;;;;;;8.12;100.00;102232.97;5113042;28;20023;-58
2023/04/08 05:20:35;;;;;;;92.20;52.17;;;;;;;8.06;100.00;102231.38;5114536;28;20069;-58
2023/04/08 05:23:00;;;;;;;92.15;53.75;;;;;;;8.06;100.00;102230.47;5121784;27;20027;-58
2023/04/08 05:25:26;;;;;;;82.40;50.00;;;;;;;8.08;100.00;102239.25;5118019;27;20129;-57
2023/04/08 05:27:51;;;;;;;74.45;49.05;;;;;;;8.11;100.00;102240.03;5114243;28;20031;-57
2023/04/08 05:30:17;;;;;;;68.93;47.10;;;;;;;8.11;100.00;102244.47;5114614;27;20033;-57
2023/04/08 05:32:43;;;;;;;70.93;48.70;;;;;;;7.99;100.00;102236.91;5115401;27;20020;-57
2023/04/08 05:35:09;;;;;;;67.70;48.80;;;;;;;8.03;100.00;102238.53;5110621;28;20036;-57
2023/04/08 05:37:34;;;;;;;71.93;47.47;;;;;;;7.99;100.00;102240.41;5114259;28;20386;-57
2023/04/08 05:40:00;;;;;;;69.93;47.75;;;;;;;8.14;100.00;102245.22;5113639;28;20023;-58
2023/04/08 05:42:25;;;;;;;64.82;47.03;;;;;;;8.15;100.00;102247.00;5113879;28;20114;-58
2023/04/08 05:44:51;;;;;;;69.78;45.72;;;;;;;8.15;100.00;102248.78;5115030;27;20477;-58
2023/04/08 05:47:16;;;;;;;68.30;44.15;;;;;;;8.16;100.00;102253.16;5114256;27;20023;-57
2023/04/08 05:49:42;;;;;;;65.43;45.25;;;;;;;8.12;100.00;102252.38;5114323;28;20012;-58
2023/04/08 05:52:07;;;;;;;73.43;47.00;;;;;;;8.07;100.00;102256.94;5095653;28;20110;-57
2023/04/08 05:54:33;;;;;;;62.00;44.40;;;;;;;8.08;100.00;102260.47;5114851;27;20030;-57
2023/04/08 05:56:58;;;;;;;60.00;45.10;;;;;;;8.06;100.00;102260.53;5113573;28;20058;-57
2023/04/08 05:59:23;;;;;;;56.95;42.58;;;;;;;8.16;100.00;102266.41;5095555;28;20023;-58
2023/04/08 06:01:49;;;;;;;57.78;41.78;;;;;;;8.18;100.00;102264.59;5113259;28;20068;-57
2023/04/08 06:04:16;;;;;;;48.20;39.33;;;;;;;8.17;100.00;102269.00;5096002;28;20549;-58
2023/04/08 06:06:42;;;;;;;54.10;39.80;;;;;;;8.14;100.00;102274.38;5114845;27;20363;-58
2023/04/08 06:09:08;;;;;;;57.53;43.42;;;;;;;8.23;100.00;102273.25;5113609;28;20044;-58
2023/04/08 06:11:34;;;;;;;61.78;43.00;;;;;;;8.22;100.00;102271.50;5096138;28;20034;-57
2023/04/08 06:14:00;;;;;;;63.38;45.20;;;;;;;8.17;100.00;102274.28;5113618;28;20378;-57
2023/04/08 06:16:25;;;;;;;58.38;44.55;;;;;;;8.26;100.00;102273.16;5118762;27;20023;-58
2023/04/08 06:18:50;;;;;;;58.25;44.03;;;;;;;8.32;100.00;102283.56;5099058;28;20043;-58
2023/04/08 06:21:16;;;;;;;54.08;42.30;;;;;;;8.26;100.00;102288.19;5103234;28;20023;-57
2023/04/08 06:23:44;;;;;;;54.88;43.25;;;;;;;8.20;100.00;102281.28;5113263;28;20022;-58
2023/04/08 06:26:10;;;;;;;57.72;43.92;;;;;;;8.23;100.00;102291.78;5117402;27;20392;-57
2023/04/08 06:28:38;;;;;;;55.33;42.40;;;;;;;8.22;100.00;102283.91;5115456;27;20106;-58
2023/04/08 06:31:03;;;;;;;50.47;40.92;;;;;;;8.32;100.00;102293.31;5133310;27;20102;-57
2023/04/08 06:33:29;;;;;;;55.72;43.67;;;;;;;8.31;100.00;102297.75;5115461;27;20098;-58
2023/04/08 06:36:04;;;;;;;54.78;43.03;;;;;;;8.35;100.00;102304.72;5110970;28;20063;-57
2023/04/08 06:38:30;;;;;;;50.08;39.78;;;;;;;8.28;100.00;102307.56;5129886;27;20019;-58
2023/04/08 06:41:01;;;;;;;48.92;41.50;;;;;;;8.35;100.00;102311.75;5133450;27;20545;-58
2023/04/08 06:43:26;;;;;;;42.58;37.05;;;;;;;8.40;100.00;102313.41;5133378;27;20034;-57
2023/04/08 06:45:52;;;;;;;34.15;30.50;;;;;;;8.34;100.00;102318.00;5100225;28;20024;-58
2023/04/08 06:48:18;;;;;;;32.75;29.25;;;;;;;8.30;100.00;102316.34;5114096;27;20512;-57
2023/04/08 06:50:43;;;;;;;33.63;30.15;;;;;;;8.35;100.00;102315.31;5111151;28;20020;-58
2023/04/08 06:53:08;;;;;;;32.53;28.80;;;;;;;8.25;100.00;102299.72;5091044;28;20015;-58
2023/04/08 06:55:34;;;;;;;33.00;29.50;;;;;;;8.38;100.00;102316.97;5086956;28;20062;-58
2023/04/08 06:58:00;;;;;;;32.65;28.88;;;;;;;8.46;100.00;102316.78;5095302;28;20023;-58
2023/04/08 07:00:26;;;;;;;34.58;31.10;;;;;;;8.50;100.00;102319.31;5112087;28;20055;-58
2023/04/08 07:02:51;;;;;;;32.15;28.85;;;;;;;8.55;100.00;102327.97;5092707;28;20054;-57
2023/04/08 07:05:17;;;;;;;34.20;30.50;;;;;;;8.48;100.00;102302.56;5112550;28;20027;-58
2023/04/08 07:07:42;;;;;;;37.35;30.60;;;;;;;8.66;100.00;102332.09;5096750;28;20020;-58
2023/04/08 07:10:11;;;;;;;37.10;30.92;;;;;;;8.73;100.00;102339.78;5113517;27;20522;-57
2023/04/08 07:12:37;;;;;;;35.53;31.25;;;;;;;8.76;100.00;102333.53;5112559;28;20020;-57
2023/04/08 07:15:02;;;;;;;37.58;33.50;;;;;;;8.81;100.00;102327.16;5094133;28;20355;-58
2023/04/08 07:17:28;;;;;;;39.05;34.95;;;;;;;8.76;100.00;102331.72;5111356;28;20077;-58
2023/04/08 07:19:53;;;;;;;36.33;32.13;;;;;;;8.82;99.89;102350.13;5103165;27;20031;-57
2023/04/08 07:22:19;;;;;;;36.58;32.80;;;;;;;8.69;99.46;102345.25;5091663;28;20044;-57
2023/04/08 07:24:48;;;;;;;35.72;31.98;;;;;;;8.56;99.67;102347.41;5107849;28;20024;-58
2023/04/08 07:27:15;;;;;;;35.75;31.90;;;;;;;8.53;99.90;102359.00;5120616;27;20026;-57
2023/04/08 07:29:43;;;;;;;35.90;32.03;;;;;;;8.54;100.00;102354.56;5114531;27;20020;-58
2023/04/08 07:32:08;;;;;;;36.53;32.75;;;;;;;8.54;100.00;102367.81;5091583;28;20482;-57
2023/04/08 07:34:35;;;;;;;37.40;33.40;;;;;;;8.58;100.00;102364.13;5091905;28;20036;-57
2023/04/08 07:37:01;;;;;;;36.67;32.83;;;;;;;8.53;100.00;102368.69;5080209;28;20072;-57
2023/04/08 07:39:26;;;;;;;35.80;31.92;;;;;;;8.61;99.64;102364.91;5093022;28;20487;-58
2023/04/08 07:41:51;;;;;;;36.40;32.50;;;;;;;8.62;100.00;102374.63;5093463;28;20051;-58
2023/04/08 07:44:18;;;;;;;34.85;31.25;;;;;;;8.64;99.64;102370.13;5112091;28;20526;-58
2023/04/08 07:46:50;;;;;;;34.10;30.60;;;;;;;8.51;100.00;102366.13;5093655;28;20047;-58
2023/04/08 07:49:17;;;;;;;36.70;32.70;;;;;;;8.56;100.00;102376.56;5131557;28;20059;-57
2023/04/08 07:51:45;;;;;;;36.25;32.40;;;;;;;8.54;100.00;102363.38;5132242;28;20023;-57
2023/04/08 07:54:16;;;;;;;34.78;31.15;;;;;;;8.54;100.00;102381.94;5132770;28;20519;-57
2023/04/08 07:56:44;;;;;;;36.97;32.88;;;;;;;8.70;100.00;102368.19;5132747;28;20027;-57
2023/04/08 07:59:11;;;;;;;35.70;32.00;;;;;;;8.69;100.00;102372.63;5130897;28;20027;-58
2023/04/08 08:01:36;;;;;;;37.58;31.25;;;;;;;8.81;99.21;102385.53;5113737;27;20055;-58
2023/04/08 08:04:02;;;;;;;35.80;31.33;;;;;;;8.79;99.72;102384.69;5117951;27;20405;-58
2023/04/08 08:06:33;;;;;;;34.88;31.17;;;;;;;8.73;99.93;102387.53;5136266;27;20027;-58
2023/04/08 08:08:59;;;;;;;35.17;31.58;;;;;;;8.79;99.71;102386.47;5134651;27;20027;-57
2023/04/08 08:11:28;;;;;;;35.08;31.48;;;;;;;8.79;99.61;102391.78;5120866;27;20030;-57
2023/04/08 08:13:54;;;;;;;35.28;31.60;;;;;;;8.87;99.79;102392.44;5097619;28;20031;-58
2023/04/08 08:16:19;;;;;;;35.30;31.70;;;;;;;8.82;99.67;102386.38;5115363;28;20027;-58
2023/04/08 08:18:45;;;;;;;34.92;31.23;;;;;;;8.91;99.78;102393.19;5098247;27;20031;-58
2023/04/08 08:21:10;;;;;;;35.13;31.63;;;;;;;9.00;99.21;102400.84;5115727;27;20027;-58
2023/04/08 08:23:36;;;;;;;34.53;30.95;;;;;;;8.98;96.97;102405.38;5115787;28;20428;-58
2023/04/08 08:26:09;;;;;;;36.30;32.40;;;;;;;8.96;98.33;102410.72;5115577;28;20487;-58
2023/04/08 08:28:37;;;;;;;36.40;32.78;;;;;;;8.93;97.43;102407.28;5115862;28;20043;-58
2023/04/08 08:31:04;;;;;;;38.72;33.05;;;;;;;8.96;99.06;102416.00;5116048;27;20451;-57
2023/04/08 08:33:30;;;;;;;38.17;34.25;;;;;;;8.85;98.32;102411.06;5115443;28;20110;-57
2023/04/08 08:35:56;;;;;;;35.58;32.08;;;;;;;8.90;98.74;102418.84;5115328;28;20066;-58
2023/04/08 08:38:22;;;;;;;36.28;32.55;;;;;;;8.78;99.05;102412.16;5115581;28;20069;-58
2023/04/08 08:40:53;;;;;;;34.83;31.30;;;;;;;8.75;98.94;102414.91;5115982;27;20436;-58
2023/04/08 08:43:19;;;;;;;36.20;32.50;;;;;;;8.95;100.00;102422.25;5115565;28;20026;-58
2023/04/08 08:45:44;;;;;;;33.47;30.08;;;;;;;9.02;97.47;102421.13;5114549;28;20468;-58
2023/04/08 08:48:10;;;;;;;33.33;29.88;;;;;;;9.12;96.21;102420.84;5115242;28;20427;-58
2023/04/08 08:50:35;;;;;;;34.28;30.73;;;;;;;9.31;95.77;102425.50;5115225;28;20026;-58
2023/04/08 08:53:01;;;;;;;35.70;31.90;;;;;;;9.23;95.81;102411.59;5116343;27;20027;-57
2023/04/08 08:55:31;;;;;;;34.47;30.98;;;;;;;9.35;95.51;102428.94;5096721;28;20031;-57
2023/04/08 08:57:56;;;;;;;36.20;32.55;;;;;;;9.37;96.01;102427.09;5096855;28;20115;-57
2023/04/08 09:00:32;;;;;;;34.20;30.73;;;;;;;9.47;96.81;102435.63;5114435;28;20198;-59
2023/04/08 09:03:20;;;;;;;36.50;32.80;;;;;;;9.41;96.65;102431.41;5114762;28;20111;-58
2023/04/08 09:05:56;;;;;;;36.10;32.60;;;;;;;9.27;96.26;102437.16;5078427;28;20024;-59
2023/04/08 09:08:33;;;;;;;34.70;31.10;;;;;;;9.27;96.75;102429.19;5093413;28;20024;-58
2023/04/08 09:11:22;;;;;;;36.95;33.13;;;;;;;9.27;95.89;102438.97;5096138;28;20073;-58
2023/04/08 09:13:47;;;;;;;36.83;32.97;;;;;;;9.23;95.02;102447.91;5095641;28;20490;-58
2023/04/08 09:16:16;;;;;;;36.03;32.35;;;;;;;9.32;94.30;102450.28;5114257;28;20069;-58
2023/04/08 09:18:43;;;;;;;39.00;34.80;;;;;;;9.44;95.04;102449.00;5115791;27;20036;-58
2023/04/08 09:21:10;;;;;;;39.78;35.58;;;;;;;9.35;95.39;102454.63;5114429;28;20028;-58
2023/04/08 09:23:47;;;;;;;38.83;34.80;;;;;;;9.41;94.77;102449.13;5114634;28;20031;-58
2023/04/08 09:26:16;;;;;;;39.95;35.65;;;;;;;9.55;95.68;102458.38;5096347;28;20144;-59
2023/04/08 09:28:43;;;;;;;39.92;35.63;;;;;;;9.59;95.59;102450.28;5097555;27;20132;-58
2023/04/08 09:31:19;;;;;;;42.83;38.28;;;;;;;9.60;95.91;102455.56;5095858;28;20022;-58
2023/04/08 09:33:46;;;;;;;41.03;36.60;;;;;;;9.58;94.41;102460.06;5096183;28;20031;-58
2023/04/08 09:36:11;;;;;;;41.13;36.75;;;;;;;9.58;95.69;102456.53;5114759;28;20019;-58
2023/04/08 09:38:37;;;;;;;40.67;36.53;;;;;;;9.58;96.43;102460.06;5114376;28;20368;-58
2023/04/08 09:41:06;;;;;;;42.75;38.25;;;;;;;9.48;97.20;102456.84;5115212;27;20031;-58
2023/04/08 09:43:40;;;;;;;46.35;41.20;;;;;;;9.33;96.78;102460.84;5114166;28;20725;-58
2023/04/08 09:46:10;;;;;;;45.20;40.40;;;;;;;9.30;98.01;102463.63;5094657;28;20390;-58
2023/04/08 09:48:41;;;;;;;44.38;39.67;;;;;;;9.17;97.83;102458.72;5114202;28;20080;-58
2023/04/08 09:51:11;;;;;;;45.65;40.67;;;;;;;9.12;97.68;102458.88;5114037;28;20497;-58
2023/04/08 09:53:37;;;;;;;;;;;;;;;9.38;97.79;102460.69;5115606;27;20513;-58
2023/04/08 09:56:06;;;;;;;41.65;37.15;;;;;;;9.42;98.03;102464.16;5095511;28;19915;-58
2023/04/08 09:58:51;;;;;;;40.10;35.97;;;;;;;9.44;98.02;102449.00;5113825;28;20492;-58
2023/04/08 10:01:21;;;;;;;40.78;36.45;;;;;;;9.56;96.09;102467.22;5113132;28;20466;-58
2023/04/08 10:03:55;;;;;;;40.03;36.00;;;;;;;9.60;96.24;102465.34;5113785;28;20478;-58
2023/04/08 10:06:26;;;;;;;40.20;36.08;;;;;;;9.55;95.90;102470.78;5114835;27;20035;-58
2023/04/08 10:08:52;;;;;;;38.30;34.53;;;;;;;9.54;95.21;102467.25;5113654;28;20491;-58
2023/04/08 10:11:18;;;;;;;38.65;34.75;;;;;;;9.50;93.95;102459.44;5112752;28;20095;-58
2023/04/08 10:13:43;;;;;;;38.88;34.80;;;;;;;9.70;94.75;102464.97;5094956;28;20378;-58
2023/04/08 10:16:21;;;;;;;36.53;32.90;;;;;;;9.79;94.58;102471.75;5115132;27;20027;-58
2023/04/08 10:18:48;;;;;;;34.75;31.55;;;;;;;9.69;94.04;102468.53;5095248;28;20060;-58
2023/04/08 10:21:39;;;;;;;35.05;31.60;;;;;;;9.85;94.68;102474.19;5113268;28;20016;-58
2023/04/08 10:24:09;;;;;;;34.97;31.67;;;;;;;9.82;92.99;102471.66;5094993;28;20019;-58
2023/04/08 10:26:37;;;;;;;36.60;33.03;;;;;;;10.02;93.55;102478.94;5112206;28;20031;-58
2023/04/08 10:29:17;;;;;;;37.00;33.38;;;;;;;10.05;93.58;102470.00;5114223;27;20432;-58
2023/04/08 10:31:44;;;;;;;35.70;32.25;;;;;;;10.00;92.39;102451.56;5112681;28;20020;-58
2023/04/08 10:34:20;;;;;;;34.17;30.67;;;;;;;10.08;91.81;102465.44;5113200;28;20115;-58
2023/04/08 10:36:46;;;;;;;35.83;32.20;;;;;;;10.31;91.83;102466.47;5113106;28;20372;-58
2023/04/08 10:39:13;;;;;;;34.97;31.83;;;;;;;10.37;91.86;102463.56;5114399;27;20428;-58
2023/04/08 10:41:45;;;;;;;33.55;30.35;;;;;;;10.21;89.14;102432.19;5094843;28;20549;-58
2023/04/08 10:44:22;;;;;;;35.20;31.92;;;;;;;10.66;90.77;102460.72;5095068;28;20047;-58
2023/04/08 10:46:49;;;;;;;34.03;30.92;;;;;;;10.78;88.94;102469.16;5112490;28;20390;-58
2023/04/08 10:49:16;;;;;;;33.03;30.02;;;;;;;10.90;87.83;102469.56;5113072;28;20039;-58
2023/04/08 10:51:43;;;;;;;32.38;29.48;;;;;;;11.17;87.08;102461.41;5095864;28;20023;-58
2023/04/08 10:54:11;;;;;;;34.67;31.35;;;;;;;11.50;85.84;102466.31;5113070;28;20027;-58
2023/04/08 10:56:54;;;;;;;33.25;30.17;;;;;;;11.56;83.83;102464.28;5112644;28;20030;-59
2023/04/08 10:59:30;;;;;;;31.90;28.90;;;;;;;11.80;84.75;102448.19;5112413;28;20470;-58
2023/04/08 11:01:57;;;;;;;34.08;31.00;;;;;;;11.90;83.25;102444.22;5113237;27;20029;-58
2023/04/08 11:04:23;;;;;;;32.72;29.60;;;;;;;11.95;81.39;102455.56;5112837;28;20023;-58
2023/04/08 11:06:50;;;;;;;33.42;30.30;;;;;;;11.97;81.70;102447.47;5112575;28;20471;-58
2023/04/08 11:09:16;;;;;;;33.53;30.33;;;;;;;11.70;79.82;102460.16;5112616;28;20027;-59
2023/04/08 11:11:42;;;;;;;32.35;29.15;;;;;;;11.57;79.97;102455.34;5108379;27;20450;-58
2023/04/08 11:14:08;;;;;;;33.83;30.48;;;;;;;11.74;82.99;102435.13;5132790;27;20409;-58